Lakeville, MN

10:44 AM CST on December 03, 2016 (GMT -0600)
Airlake

Weather History for KLVN - September, 2013

Change the Weather History Date:

Thursday, September 26, 2013

  Actual Average Record
Temperature  
Mean Temperature 63 °F -  
Max Temperature 80 °F 68 °F 87 °F (1974)
Min Temperature 46 °F 44 °F 26 °F (1980)
Degree Days  
Heating Degree Days 2    
Growing Degree Days 13 (Base 50)    
Moisture  
Dew Point 54 °F    
Average Humidity 72    
Maximum Humidity 100    
Minimum Humidity 45    
Precipitation  
Precipitation 0.00 in - - ()
Sea Level Pressure  
Sea Level Pressure 29.90 in    
Wind  
Wind Speed 6 mph (SE)    
Max Wind Speed 17 mph    
Max Gust Speed 26 mph    
Visibility 9 miles    
Events      
Averages and records for this station are not official NWS values.
T = Trace of Precipitation, MM = Missing Value Source: NWS Daily Summary

Daily Weather History Graph

Daily Weather History Graph

Search for Another Location

Airport or City:

Trip Planner

Search our weather history database for the weather conditions in past years. The results will help you decide how hot, cold, wet, or windy it might be!

Date:

Astronomy

Sep. 26, 2013 Rise Set
Actual Time 7:05 AM CDT 7:02 PM CDT
Civil Twilight 6:36 AM CDT 7:31 PM CDT
Nautical Twilight 6:02 AM CDT 8:05 PM CDT
Astronomical Twilight 5:27 AM CDT 8:39 PM CDT
Moon 11:49 PM CDT (9/26) 2:09 PM CDT (9/26)
Length of Visible Light 12h 55m
Length of Day
11h 57m
Waning Gibbous, 54% of the Moon is Illuminated
Sep 26
Waning Gibbous
Sep 26
Last Quarter
Oct 4
New
Oct 11
First Quarter
Oct 18
Full

Hourly Weather History & Observations

Time (CDT) Temp. Windchill Dew Point Humidity Pressure Visibility Wind Dir Wind Speed Gust Speed Precip Events Conditions
12:12 AM 50.0 °F - 48.2 °F 94% 29.92 in 10.0 mi East 3.5 mph - N/A   Clear
12:32 AM 50.0 °F - 48.2 °F 94% 29.93 in 7.0 mi Calm Calm - N/A   Clear
12:51 AM 48.2 °F - 48.2 °F 100% 29.92 in 7.0 mi Calm Calm - N/A   Clear
1:12 AM 46.4 °F - 46.4 °F 100% 29.93 in 7.0 mi Calm Calm - N/A   Clear
1:32 AM 46.4 °F - 46.4 °F 100% 29.93 in 7.0 mi Calm Calm - N/A   Clear
1:51 AM 48.2 °F - 46.4 °F 93% 29.93 in 7.0 mi Calm Calm - N/A   Clear
2:12 AM 48.2 °F - 48.2 °F 100% 29.93 in 5.0 mi East 3.5 mph - N/A   Clear
2:32 AM 46.4 °F - 46.4 °F 100% 29.93 in 5.0 mi Calm Calm - N/A   Clear
2:52 AM 46.4 °F - 46.4 °F 100% 29.93 in 5.0 mi Calm Calm - N/A   Clear
3:12 AM 46.4 °F 45.2 °F 46.4 °F 100% 29.93 in 5.0 mi East 3.5 mph - N/A   Clear
3:32 AM 48.2 °F - 48.2 °F 100% 29.93 in 7.0 mi Calm Calm - N/A   Clear
3:52 AM 48.2 °F - 48.2 °F 100% 29.92 in 7.0 mi ESE 3.5 mph - N/A   Clear
4:11 AM 50.0 °F - 50.0 °F 100% 29.92 in 10.0 mi SE 3.5 mph - N/A   Clear
4:32 AM 51.8 °F - 51.8 °F 100% 29.92 in 10.0 mi SE 5.8 mph - N/A   Clear
4:52 AM 53.6 °F - 51.8 °F 94% 29.92 in 10.0 mi SE 6.9 mph - N/A   Clear
5:11 AM 53.6 °F - 50.0 °F 88% 29.92 in 10.0 mi SSE 6.9 mph - N/A   Clear
5:32 AM 53.6 °F - 50.0 °F 88% 29.92 in 10.0 mi SE 8.1 mph - N/A   Clear
5:52 AM 53.6 °F - 50.0 °F 88% 29.92 in 10.0 mi SE 8.1 mph - N/A   Clear
6:11 AM 53.6 °F - 50.0 °F 88% 29.92 in 10.0 mi SSE 5.8 mph - N/A   Clear
6:32 AM 53.6 °F - 50.0 °F 88% 29.92 in 10.0 mi SSE 8.1 mph - N/A   Clear
6:52 AM 53.6 °F - 48.2 °F 82% 29.93 in 10.0 mi SSE 5.8 mph - N/A   Clear
7:11 AM 53.6 °F - 50.0 °F 88% 29.93 in 10.0 mi SE 9.2 mph - N/A   Clear
7:32 AM 53.6 °F - 48.2 °F 82% 29.93 in 10.0 mi SE 6.9 mph 16.1 mph N/A   Clear
7:52 AM 53.6 °F - 50.0 °F 88% 29.94 in 10.0 mi SE 9.2 mph - N/A   Clear
8:11 AM 55.4 °F - 50.0 °F 82% 29.94 in 10.0 mi SE 10.4 mph - N/A   Clear
8:32 AM 55.4 °F - 50.0 °F 82% 29.94 in 10.0 mi SSE 9.2 mph - N/A   Clear
8:51 AM 57.2 °F - 50.0 °F 77% 29.94 in 10.0 mi SE 9.2 mph 16.1 mph N/A   Clear
9:12 AM 60.8 °F - 50.0 °F 68% 29.93 in 10.0 mi SE 11.5 mph 18.4 mph N/A   Clear
9:32 AM 62.6 °F - 51.8 °F 68% 29.94 in 10.0 mi SE 8.1 mph - N/A   Clear
9:52 AM 62.6 °F - 51.8 °F 68% 29.94 in 10.0 mi SE 8.1 mph - N/A   Clear
10:12 AM 64.4 °F - 51.8 °F 64% 29.93 in 10.0 mi SE 6.9 mph - N/A   Clear
10:32 AM 68.0 °F - 53.6 °F 60% 29.93 in 10.0 mi SE 10.4 mph 16.1 mph N/A   Clear
10:52 AM 69.8 °F - 53.6 °F 56% 29.93 in 10.0 mi SSE 11.5 mph 17.3 mph N/A   Clear
11:12 AM 71.6 °F - 55.4 °F 57% 29.93 in 7.0 mi SSE 10.4 mph 16.1 mph N/A   Clear
11:32 AM 71.6 °F - 55.4 °F 57% 29.92 in 10.0 mi SSE 13.8 mph 18.4 mph N/A   Clear
11:52 AM 73.4 °F - 55.4 °F 53% 29.92 in 10.0 mi SE 13.8 mph 21.9 mph N/A   Clear
12:12 PM 73.4 °F - 55.4 °F 53% 29.91 in 10.0 mi SSE 15.0 mph 21.9 mph N/A   Clear
12:32 PM 75.2 °F - 57.2 °F 53% 29.90 in 10.0 mi SSE 15.0 mph 25.3 mph N/A   Clear
12:52 PM 75.2 °F - 57.2 °F 53% 29.90 in 10.0 mi SSE 15.0 mph 26.5 mph N/A   Clear
1:12 PM 78.8 °F - 57.2 °F 47% 29.89 in 10.0 mi SSE 16.1 mph 26.5 mph N/A   Clear
1:32 PM 78.8 °F - 57.2 °F 47% 29.88 in 7.0 mi South 17.3 mph 26.5 mph N/A   Clear
1:52 PM 78.8 °F - 57.2 °F 47% 29.88 in 10.0 mi SSE 16.1 mph 24.2 mph N/A   Clear
2:12 PM 78.8 °F - 57.2 °F 47% 29.88 in 10.0 mi SSE 13.8 mph 23.0 mph N/A   Clear
2:32 PM 78.8 °F - 57.2 °F 47% 29.88 in 10.0 mi South 13.8 mph 20.7 mph N/A   Clear
2:52 PM 80.6 °F - 57.2 °F 45% 29.87 in 10.0 mi SSE 15.0 mph 21.9 mph N/A   Clear
3:12 PM 80.6 °F - 57.2 °F 45% 29.87 in 10.0 mi SSE 11.5 mph 23.0 mph N/A   Clear
3:32 PM 80.6 °F - 57.2 °F 45% 29.87 in 10.0 mi South 13.8 mph 21.9 mph N/A   Clear
3:52 PM 80.6 °F - 57.2 °F 45% 29.86 in 10.0 mi SSE 13.8 mph 23.0 mph N/A   Clear
4:12 PM 80.6 °F - 57.2 °F 45% 29.85 in 10.0 mi SSE 12.7 mph 24.2 mph N/A   Clear
4:32 PM 80.6 °F - 57.2 °F 45% 29.85 in 10.0 mi SSE 12.7 mph 24.2 mph N/A   Clear
4:52 PM 78.8 °F - 57.2 °F 47% 29.85 in 10.0 mi SSE 16.1 mph 24.2 mph N/A   Clear
5:12 PM 78.8 °F - 57.2 °F 47% 29.85 in 10.0 mi SSE 11.5 mph 21.9 mph N/A   Clear
5:32 PM 78.8 °F - 57.2 °F 47% 29.86 in 10.0 mi SSE 12.7 mph 20.7 mph N/A   Clear
5:52 PM 78.8 °F - 57.2 °F 47% 29.86 in 10.0 mi SE 9.2 mph 19.6 mph N/A   Clear
6:11 PM 77.0 °F - 57.2 °F 50% 29.85 in 10.0 mi SSE 10.4 mph 19.6 mph N/A   Clear
6:32 PM 75.2 °F - 59.0 °F 57% 29.85 in 10.0 mi SE 10.4 mph 19.6 mph N/A   Clear
6:52 PM 73.4 °F - 59.0 °F 61% 29.85 in 10.0 mi SE 9.2 mph - N/A   Clear
7:12 PM 73.4 °F - 59.0 °F 61% 29.85 in 10.0 mi SE 8.1 mph - N/A   Clear
7:32 PM 71.6 °F - 59.0 °F 64% 29.85 in 10.0 mi SE 9.2 mph - N/A   Clear
7:52 PM 71.6 °F - 59.0 °F 64% 29.86 in 10.0 mi SE 8.1 mph - N/A   Clear
8:12 PM 71.6 °F - 59.0 °F 64% 29.86 in 10.0 mi North - - N/A   Clear
8:32 PM 69.8 °F - 59.0 °F 68% 29.87 in 10.0 mi ESE 5.8 mph - N/A   Clear
8:51 PM 69.8 °F - 59.0 °F 68% 29.88 in 10.0 mi SE 6.9 mph - N/A   Clear
9:12 PM 68.0 °F - 60.8 °F 78% 29.88 in 10.0 mi SE 5.8 mph - N/A   Clear
9:32 PM 68.0 °F - 60.8 °F 78% 29.89 in 10.0 mi SE 6.9 mph - N/A   Clear
9:52 PM 68.0 °F - 60.8 °F 78% 29.89 in 10.0 mi SE 8.1 mph - N/A   Clear
10:12 PM 66.2 °F - 60.8 °F 83% 29.90 in 10.0 mi SE 6.9 mph - N/A   Clear
10:32 PM 66.2 °F - 60.8 °F 83% 29.90 in 10.0 mi SE 6.9 mph - N/A   Clear
10:52 PM 66.2 °F - 59.0 °F 78% 29.90 in 10.0 mi SE 6.9 mph - N/A   Clear
11:12 PM 66.2 °F - 59.0 °F 78% 29.91 in 10.0 mi SE 8.1 mph - N/A   Clear
11:31 PM 66.2 °F - 59.0 °F 78% 29.92 in 10.0 mi SE 5.8 mph - N/A   Clear
11:52 PM 66.2 °F - 59.0 °F 78% 29.93 in 10.0 mi SE 5.8 mph - N/A   Clear